Time;durP1;ratioP1;P1;durP2;ratioP2;P2;SDS_P1;SDS_P2;PMS_P1;PMS_P2;Temp;Humidity;BMP_temperature;BMP_pressure;BME280_temperature;BME280_humidity;BME280_pressure;Samples;Min_cycle;Max_cycle;Signal;HPM_P1;HPM_P2
2021/05/14 00:01:05;;;;;;;;;;;22.40;36.70;;;;;;1588548;73;1137;-57
2021/05/14 00:03:06;;;;;;;;;;;22.40;36.60;;;;;;1577453;73;749;-54
2021/05/14 00:05:09;;;;;;;;;;;22.40;36.50;;;;;;1576734;73;749;-57
2021/05/14 00:07:11;;;;;;;;;;;22.40;36.30;;;;;;1582195;73;1931;-57
2021/05/14 00:09:13;;;;;;;;;;;22.40;36.30;;;;;;1586620;73;782;-55
2021/05/14 00:11:15;;;;;;;;;;;22.40;36.60;;;;;;1580883;73;1136;-56
2021/05/14 00:13:17;;;;;;;;;;;22.30;36.40;;;;;;1578704;73;765;-56
2021/05/14 00:15:18;;;;;;;;;;;22.40;36.30;;;;;;1582963;73;1078;-56
2021/05/14 00:17:20;;;;;;;;;;;22.40;36.30;;;;;;1584087;73;832;-53
2021/05/14 00:19:22;;;;;;;;;;;22.40;36.30;;;;;;1573075;73;792;-52
2021/05/14 00:21:26;;;;;;;;;;;22.40;36.30;;;;;;1583325;73;1155;-56
2021/05/14 00:23:28;;;;;;;;;;;22.30;36.10;;;;;;1586337;73;738;-53
2021/05/14 00:25:29;;;;;;;;;;;22.30;36.10;;;;;;1582898;73;1940;-56
2021/05/14 00:27:31;;;;;;;;;;;22.40;36.00;;;;;;1579233;73;722;-57
2021/05/14 00:29:33;;;;;;;;;;;22.30;36.10;;;;;;1578197;73;1119;-55
2021/05/14 00:31:35;;;;;;;;;;;22.40;36.00;;;;;;1579250;73;683;-54
2021/05/14 00:33:37;;;;;;;;;;;22.40;35.90;;;;;;1582691;73;785;-57
2021/05/14 00:35:39;;;;;;;;;;;22.40;35.80;;;;;;1579372;73;736;-57
2021/05/14 00:37:41;;;;;;;;;;;22.40;35.70;;;;;;1581011;73;745;-57
2021/05/14 00:39:43;;;;;;;;;;;22.30;35.70;;;;;;1576607;73;1174;-54
2021/05/14 00:41:45;;;;;;;;;;;22.40;35.70;;;;;;1578672;73;732;-54
2021/05/14 00:43:47;;;;;;;;;;;22.40;35.60;;;;;;1579881;73;732;-57
2021/05/14 00:45:49;;;;;;;;;;;22.30;35.60;;;;;;1581688;73;1921;-57
2021/05/14 00:47:51;;;;;;;;;;;22.30;35.40;;;;;;1578935;73;759;-57
2021/05/14 00:49:52;;;;;;;;;;;22.30;35.60;;;;;;1581424;73;1139;-58
2021/05/14 00:51:55;;;;;;;;;;;22.30;35.50;;;;;;1580734;73;771;-56
2021/05/14 00:53:57;;;;;;;;;;;22.40;35.50;;;;;;1576755;73;761;-56
2021/05/14 00:55:59;;;;;;;;;;;22.30;35.40;;;;;;1580554;73;869;-54
2021/05/14 00:58:01;;;;;;;;;;;22.30;35.50;;;;;;1578398;73;811;-57
2021/05/14 01:00:03;;;;;;;;;;;22.30;35.30;;;;;;1583255;73;1137;-55
2021/05/14 01:02:06;;;;;;;;;;;22.30;35.30;;;;;;1579524;73;708;-57
2021/05/14 01:04:07;;;;;;;;;;;22.30;35.40;;;;;;1582264;73;802;-57
2021/05/14 01:06:09;;;;;;;;;;;22.30;35.20;;;;;;1577986;73;1938;-55
2021/05/14 01:08:11;;;;;;;;;;;22.30;35.20;;;;;;1570736;73;737;-53
2021/05/14 01:10:13;;;;;;;;;;;22.40;35.10;;;;;;1573955;73;1133;-58
2021/05/14 01:12:15;;;;;;;;;;;22.30;35.20;;;;;;1578236;73;691;-54
2021/05/14 01:14:17;;;;;;;;;;;22.30;35.10;;;;;;1580371;73;681;-57
2021/05/14 01:16:19;;;;;;;;;;;22.30;35.00;;;;;;1576074;73;912;-57
2021/05/14 01:18:21;;;;;;;;;;;22.30;35.10;;;;;;1575169;73;749;-57
2021/05/14 01:20:27;;;;;;;;;;;22.30;34.80;;;;;;1577492;73;1191;-57
2021/05/14 01:22:28;;;;;;;;;;;22.30;34.90;;;;;;1580796;73;768;-57
2021/05/14 01:24:31;;;;;;;;;;;22.30;34.90;;;;;;1586126;73;792;-56
2021/05/14 01:26:33;;;;;;;;;;;22.20;34.60;;;;;;1584321;73;1906;-58
2021/05/14 01:28:35;;;;;;;;;;;22.20;34.40;;;;;;1571095;73;780;-57
2021/05/14 01:30:37;;;;;;;;;;;22.30;34.60;;;;;;1575525;73;1118;-56
2021/05/14 01:32:39;;;;;;;;;;;22.20;34.80;;;;;;1590668;73;791;-53
2021/05/14 01:34:41;;;;;;;;;;;22.20;34.40;;;;;;1577822;73;747;-57
2021/05/14 01:36:42;;;;;;;;;;;22.10;34.40;;;;;;1580444;73;800;-57
2021/05/14 01:38:44;;;;;;;;;;;22.10;34.20;;;;;;1585085;72;841;-57
2021/05/14 01:40:46;;;;;;;;;;;22.20;34.30;;;;;;1577479;73;1123;-56
2021/05/14 01:42:48;;;;;;;;;;;22.20;34.50;;;;;;1581463;73;788;-57
2021/05/14 01:44:50;;;;;;;;;;;22.20;34.40;;;;;;1591020;73;695;-57
2021/05/14 01:46:52;;;;;;;;;;;22.10;34.30;;;;;;1586044;73;1937;-56
2021/05/14 01:48:54;;;;;;;;;;;22.10;34.50;;;;;;1600965;73;732;-52
2021/05/14 01:50:55;;;;;;;;;;;22.00;34.20;;;;;;1586707;73;1130;-57
2021/05/14 01:52:57;;;;;;;;;;;22.10;34.20;;;;;;1587254;73;746;-57
2021/05/14 01:55:04;;;;;;;;;;;22.20;34.40;;;;;;1594701;73;846;-58
2021/05/14 01:57:03;;;;;;;;;;;22.10;34.20;;;;;;1577652;73;1552;-57
2021/05/14 01:59:05;;;;;;;;;;;22.20;34.20;;;;;;1583195;73;777;-52
2021/05/14 02:01:07;;;;;;;;;;;22.20;34.20;;;;;;1583595;73;1107;-57
2021/05/14 02:03:09;;;;;;;;;;;22.10;34.40;;;;;;1589048;73;712;-53
2021/05/14 02:05:11;;;;;;;;;;;22.20;34.20;;;;;;1576361;73;821;-58
2021/05/14 02:09:18;;;;;;;;;;;21.90;34.20;;;;;;1561869;75;590;-68
2021/05/14 02:11:20;;;;;;;;;;;22.10;34.10;;;;;;1569444;75;695;-66
2021/05/14 02:13:22;;;;;;;;;;;22.10;34.10;;;;;;1571862;75;932;-68
2021/05/14 02:15:24;;;;;;;;;;;22.10;34.10;;;;;;1572806;75;736;-69
2021/05/14 02:17:25;;;;;;;;;;;22.10;34.10;;;;;;1557908;75;1276;-68
2021/05/14 02:19:28;;;;;;;;;;;22.10;34.40;;;;;;1578475;73;805;-69
2021/05/14 02:21:30;;;;;;;;;;;22.10;34.20;;;;;;1592283;73;774;-68
2021/05/14 02:23:32;;;;;;;;;;;22.10;34.50;;;;;;1582143;73;763;-70
2021/05/14 02:25:34;;;;;;;;;;;22.10;34.60;;;;;;1597296;74;748;-69
2021/05/14 02:27:35;;;;;;;;;;;22.20;34.60;;;;;;1581813;73;1946;-69
2021/05/14 02:29:37;;;;;;;;;;;22.20;34.30;;;;;;1593042;73;743;-69
2021/05/14 02:31:39;;;;;;;;;;;22.10;34.20;;;;;;1592399;73;789;-69
2021/05/14 02:33:41;;;;;;;;;;;22.10;34.20;;;;;;1590338;73;758;-68
2021/05/14 02:35:43;;;;;;;;;;;22.20;34.30;;;;;;1582698;73;926;-69
2021/05/14 02:37:45;;;;;;;;;;;22.10;34.40;;;;;;1587183;74;1120;-68
2021/05/14 02:39:47;;;;;;;;;;;22.10;34.40;;;;;;1593570;73;737;-70
2021/05/14 02:41:49;;;;;;;;;;;22.10;34.40;;;;;;1580364;74;782;-67
2021/05/14 02:43:50;;;;;;;;;;;22.20;34.40;;;;;;1589999;73;730;-68
2021/05/14 02:45:52;;;;;;;;;;;22.10;34.40;;;;;;1585689;73;789;-69
2021/05/14 02:47:54;;;;;;;;;;;22.10;34.40;;;;;;1587859;73;1926;-68
2021/05/14 02:49:56;;;;;;;;;;;22.30;34.70;;;;;;1579362;74;760;-69
2021/05/14 02:51:58;;;;;;;;;;;22.20;34.70;;;;;;1588212;74;660;-68
2021/05/14 02:54:00;;;;;;;;;;;22.30;34.80;;;;;;1587775;74;905;-69
2021/05/14 02:56:02;;;;;;;;;;;22.20;34.70;;;;;;1580959;74;802;-70
2021/05/14 02:58:03;;;;;;;;;;;22.20;34.60;;;;;;1591706;73;1122;-68
2021/05/14 03:00:06;;;;;;;;;;;22.10;34.60;;;;;;1597131;73;712;-68
2021/05/14 03:02:08;;;;;;;;;;;22.20;34.60;;;;;;1595346;73;936;-67
2021/05/14 03:04:10;;;;;;;;;;;22.30;34.70;;;;;;1591795;74;798;-67
2021/05/14 03:06:12;;;;;;;;;;;22.20;34.40;;;;;;1583133;73;778;-67
2021/05/14 03:08:14;;;;;;;;;;;22.30;34.40;;;;;;1586601;73;1943;-68
2021/05/14 03:10:16;;;;;;;;;;;22.30;34.40;;;;;;1594754;73;680;-65
2021/05/14 03:12:18;;;;;;;;;;;22.20;34.30;;;;;;1595414;74;795;-67
2021/05/14 03:14:20;;;;;;;;;;;22.20;34.30;;;;;;1598559;73;881;-67
2021/05/14 03:16:22;;;;;;;;;;;22.20;34.20;;;;;;1589931;73;808;-67
2021/05/14 03:18:24;;;;;;;;;;;22.30;34.20;;;;;;1593387;73;1087;-68
2021/05/14 03:20:26;;;;;;;;;;;22.20;33.90;;;;;;1581790;74;767;-70
2021/05/14 03:22:28;;;;;;;;;;;22.20;34.20;;;;;;1591148;73;743;-68
2021/05/14 03:24:29;;;;;;;;;;;22.30;34.20;;;;;;1588089;74;810;-66
2021/05/14 03:26:31;;;;;;;;;;;22.30;34.10;;;;;;1590602;74;1937;-68
2021/05/14 03:28:33;;;;;;;;;;;22.20;34.00;;;;;;1586813;74;1163;-67
2021/05/14 03:30:35;;;;;;;;;;;22.20;33.90;;;;;;1583917;73;786;-68
2021/05/14 03:32:37;;;;;;;;;;;22.20;34.00;;;;;;1587570;73;701;-68
2021/05/14 03:34:39;;;;;;;;;;;22.20;33.90;;;;;;1584282;73;757;-68
2021/05/14 03:36:41;;;;;;;;;;;22.30;34.00;;;;;;1591177;73;722;-68
2021/05/14 03:38:43;;;;;;;;;;;22.30;33.70;;;;;;1595472;73;1131;-69
2021/05/14 03:40:45;;;;;;;;;;;22.30;33.70;;;;;;1585255;73;745;-69
2021/05/14 03:42:46;;;;;;;;;;;22.20;33.60;;;;;;1590270;73;756;-68
2021/05/14 03:44:48;;;;;;;;;;;22.30;33.80;;;;;;1581246;74;809;-68
2021/05/14 03:46:50;;;;;;;;;;;22.20;33.60;;;;;;1581745;73;1935;-68
2021/05/14 03:48:52;;;;;;;;;;;22.20;33.40;;;;;;1585381;73;1131;-68
2021/05/14 03:50:54;;;;;;;;;;;22.20;33.40;;;;;;1585071;73;703;-68
2021/05/14 03:52:56;;;;;;;;;;;22.30;33.50;;;;;;1583734;74;677;-68
2021/05/14 03:54:58;;;;;;;;;;;22.20;33.40;;;;;;1594118;74;664;-69
2021/05/14 03:57:00;;;;;;;;;;;22.30;33.40;;;;;;1584821;73;842;-70
2021/05/14 03:59:02;;;;;;;;;;;22.20;33.60;;;;;;1589999;73;1061;-70
2021/05/14 04:01:04;;;;;;;;;;;22.20;33.60;;;;;;1588790;73;741;-69
2021/05/14 04:03:05;;;;;;;;;;;22.30;33.60;;;;;;1592452;73;813;-70
2021/05/14 04:05:08;;;;;;;;;;;22.30;33.50;;;;;;1591448;73;800;-71
2021/05/14 04:07:10;;;;;;;;;;;22.20;33.30;;;;;;1589932;74;1944;-70
2021/05/14 04:09:12;;;;;;;;;;;22.20;33.30;;;;;;1589163;73;821;-69
2021/05/14 04:15:40;;;;;;;;;;;22.20;33.40;;;;;;1587762;74;1648;-67
2021/05/14 04:17:42;;;;;;;;;;;22.10;33.30;;;;;;1592293;74;1139;-69
2021/05/14 04:19:44;;;;;;;;;;;22.20;33.40;;;;;;1591350;74;760;-69
2021/05/14 04:21:46;;;;;;;;;;;22.20;33.30;;;;;;1590214;74;828;-70
2021/05/14 04:23:48;;;;;;;;;;;22.20;33.40;;;;;;1591772;73;813;-69
2021/05/14 04:25:50;;;;;;;;;;;22.20;33.20;;;;;;1591607;73;770;-70
2021/05/14 04:27:52;;;;;;;;;;;22.20;33.10;;;;;;1594173;73;1905;-69
2021/05/14 04:29:53;;;;;;;;;;;22.10;33.20;;;;;;1583325;73;782;-70
2021/05/14 04:31:55;;;;;;;;;;;22.10;33.30;;;;;;1592326;73;804;-69
2021/05/14 04:33:58;;;;;;;;;;;22.20;33.40;;;;;;1591865;74;789;-69
2021/05/14 04:36:00;;;;;;;;;;;22.10;33.40;;;;;;1591627;74;772;-68
2021/05/14 04:38:01;;;;;;;;;;;22.20;33.30;;;;;;1584238;74;1147;-69
2021/05/14 04:40:04;;;;;;;;;;;22.10;33.20;;;;;;1596824;73;724;-69
2021/05/14 04:42:06;;;;;;;;;;;22.20;33.20;;;;;;1590141;74;704;-68
2021/05/14 04:44:08;;;;;;;;;;;22.10;33.20;;;;;;1595573;73;691;-68
2021/05/14 04:46:10;;;;;;;;;;;22.10;33.20;;;;;;1586376;73;729;-68
2021/05/14 04:48:12;;;;;;;;;;;22.10;33.10;;;;;;1583162;74;1933;-68
2021/05/14 04:50:17;;;;;;;;;;;22.10;33.30;;;;;;1591393;73;810;-69
2021/05/14 04:52:18;;;;;;;;;;;22.10;33.30;;;;;;1595308;73;1581;-69
2021/05/14 04:54:21;;;;;;;;;;;22.10;33.20;;;;;;1599116;73;763;-68
2021/05/14 04:56:23;;;;;;;;;;;22.10;33.30;;;;;;1595159;73;779;-69
2021/05/14 04:58:24;;;;;;;;;;;22.10;33.30;;;;;;1593332;73;1118;-69
2021/05/14 05:00:26;;;;;;;;;;;22.20;33.20;;;;;;1598835;73;760;-68
2021/05/14 05:02:28;;;;;;;;;;;22.10;33.20;;;;;;1592919;73;765;-69
2021/05/14 05:04:30;;;;;;;;;;;22.10;33.10;;;;;;1599513;73;786;-69
2021/05/14 05:06:33;;;;;;;;;;;22.10;33.20;;;;;;1587497;73;713;-69
2021/05/14 05:08:35;;;;;;;;;;;22.10;33.20;;;;;;1587069;73;1913;-69
2021/05/14 05:10:37;;;;;;;;;;;22.10;33.50;;;;;;1597605;73;807;-70
2021/05/14 05:12:38;;;;;;;;;;;22.10;33.80;;;;;;1594383;73;742;-69
2021/05/14 05:14:40;;;;;;;;;;;22.20;34.00;;;;;;1597084;73;789;-69
2021/05/14 05:16:42;;;;;;;;;;;22.10;33.70;;;;;;1591221;73;761;-67
2021/05/14 05:18:44;;;;;;;;;;;22.10;34.10;;;;;;1584791;74;1248;-68
2021/05/14 05:20:46;;;;;;;;;;;22.10;34.10;;;;;;1591303;73;777;-67
2021/05/14 05:22:48;;;;;;;;;;;22.10;34.30;;;;;;1586140;73;771;-68
2021/05/14 05:24:50;;;;;;;;;;;22.10;34.30;;;;;;1587376;73;817;-69
2021/05/14 05:26:51;;;;;;;;;;;22.10;34.30;;;;;;1590006;74;765;-67
2021/05/14 05:28:53;;;;;;;;;;;22.20;34.40;;;;;;1593223;73;1939;-67
2021/05/14 05:30:55;;;;;;;;;;;22.20;34.40;;;;;;1593543;73;711;-67
2021/05/14 05:32:57;;;;;;;;;;;22.20;34.60;;;;;;1602812;73;789;-66
2021/05/14 05:34:59;;;;;;;;;;;22.10;34.70;;;;;;1582958;74;770;-66
2021/05/14 05:37:01;;;;;;;;;;;22.10;35.00;;;;;;1585971;73;750;-66
2021/05/14 05:39:03;;;;;;;;;;;22.10;35.00;;;;;;1591627;73;1065;-65
2021/05/14 05:41:05;;;;;;;;;;;22.10;33.90;;;;;;1589400;73;847;-68
2021/05/14 05:43:07;;;;;;;;;;;22.00;34.00;;;;;;1595246;73;741;-67
2021/05/14 05:45:09;;;;;;;;;;;22.00;34.60;;;;;;1582489;74;718;-67
2021/05/14 05:47:11;;;;;;;;;;;22.00;34.70;;;;;;1594085;73;757;-65
2021/05/14 05:49:13;;;;;;;;;;;21.90;34.70;;;;;;1596744;73;1906;-65
2021/05/14 05:51:15;;;;;;;;;;;22.00;34.50;;;;;;1600032;73;697;-62
2021/05/14 05:53:17;;;;;;;;;;;22.00;34.10;;;;;;1598359;73;694;-63
2021/05/14 05:55:19;;;;;;;;;;;22.00;34.00;;;;;;1598553;73;916;-66
2021/05/14 05:57:21;;;;;;;;;;;22.00;34.10;;;;;;1596379;73;1154;-65
2021/05/14 05:59:22;;;;;;;;;;;22.00;34.10;;;;;;1590633;73;886;-66
2021/05/14 06:01:24;;;;;;;;;;;21.90;34.00;;;;;;1591629;73;741;-65
2021/05/14 06:03:26;;;;;;;;;;;22.00;34.20;;;;;;1585927;73;818;-66
2021/05/14 06:05:28;;;;;;;;;;;22.00;34.20;;;;;;1586996;74;782;-66
2021/05/14 06:07:30;;;;;;;;;;;22.00;33.90;;;;;;1580387;74;1937;-66
2021/05/14 06:09:32;;;;;;;;;;;22.00;33.60;;;;;;1584064;73;676;-66
2021/05/14 06:11:34;;;;;;;;;;;21.90;33.70;;;;;;1586808;75;893;-66
2021/05/14 06:13:36;;;;;;;;;;;22.00;33.80;;;;;;1586329;73;795;-67
2021/05/14 06:15:38;;;;;;;;;;;22.00;33.90;;;;;;1589026;73;819;-66
2021/05/14 06:17:41;;;;;;;;;;;22.00;33.90;;;;;;1600160;73;1177;-66
2021/05/14 06:19:50;;;;;;;;;;;22.00;33.70;;;;;;1596022;73;691;-66
2021/05/14 06:21:50;;;;;;;;;;;22.00;33.50;;;;;;1584244;73;1730;-66
2021/05/14 06:23:52;;;;;;;;;;;22.00;33.60;;;;;;1588150;73;781;-66
2021/05/14 06:25:53;;;;;;;;;;;22.00;33.60;;;;;;1587444;73;890;-66
2021/05/14 06:27:55;;;;;;;;;;;21.90;33.40;;;;;;1585562;73;1960;-66
2021/05/14 06:29:57;;;;;;;;;;;22.00;33.80;;;;;;1592791;73;826;-68
2021/05/14 06:31:59;;;;;;;;;;;22.00;34.00;;;;;;1590054;73;829;-67
2021/05/14 06:34:01;;;;;;;;;;;22.20;34.10;;;;;;1589936;73;853;-69
2021/05/14 06:36:04;;;;;;;;;;;22.30;34.20;;;;;;1593179;73;779;-69
2021/05/14 06:38:06;;;;;;;;;;;22.40;34.00;;;;;;1590320;73;1144;-67
2021/05/14 06:40:08;;;;;;;;;;;22.60;34.10;;;;;;1588206;73;732;-68
2021/05/14 06:42:10;;;;;;;;;;;22.70;33.80;;;;;;1593530;73;713;-67
2021/05/14 06:44:12;;;;;;;;;;;22.70;33.70;;;;;;1593278;73;734;-68
2021/05/14 06:46:14;;;;;;;;;;;22.90;33.60;;;;;;1595250;73;1057;-67
2021/05/14 06:48:16;;;;;;;;;;;22.90;33.50;;;;;;1589116;73;1933;-68
2021/05/14 06:50:18;;;;;;;;;;;23.00;33.40;;;;;;1587303;73;772;-67
2021/05/14 06:52:20;;;;;;;;;;;23.00;33.40;;;;;;1579010;73;742;-67
2021/05/14 06:54:22;;;;;;;;;;;23.00;33.40;;;;;;1593688;73;720;-67
2021/05/14 06:56:23;;;;;;;;;;;23.00;33.20;;;;;;1587634;73;749;-68
2021/05/14 06:58:25;;;;;;;;;;;22.90;33.30;;;;;;1593919;73;1118;-69
2021/05/14 07:00:27;;;;;;;;;;;22.90;33.80;;;;;;1589098;73;774;-70
2021/05/14 07:02:30;;;;;;;;;;;23.00;34.60;;;;;;1593300;73;754;-69
2021/05/14 07:04:32;;;;;;;;;;;23.10;35.10;;;;;;1590711;73;889;-66
2021/05/14 07:06:33;;;;;;;;;;;23.10;35.20;;;;;;1588484;73;754;-69
2021/05/14 07:08:35;;;;;;;;;;;23.20;35.40;;;;;;1587979;73;1967;-71
2021/05/14 07:10:38;;;;;;;;;;;23.30;35.50;;;;;;1587732;73;803;-66
2021/05/14 07:12:40;;;;;;;;;;;23.30;35.50;;;;;;1590281;73;702;-68
2021/05/14 07:14:42;;;;;;;;;;;23.30;35.40;;;;;;1593570;73;713;-69
2021/05/14 07:16:44;;;;;;;;;;;23.40;35.40;;;;;;1596032;73;741;-69
2021/05/14 07:18:46;;;;;;;;;;;23.40;35.40;;;;;;1596364;73;1139;-66
2021/05/14 07:20:48;;;;;;;;;;;23.50;35.50;;;;;;1598246;73;689;-68
2021/05/14 07:22:50;;;;;;;;;;;23.60;35.60;;;;;;1597238;73;734;-68
2021/05/14 07:24:52;;;;;;;;;;;23.50;35.60;;;;;;1594513;73;781;-67
2021/05/14 07:26:54;;;;;;;;;;;23.50;35.60;;;;;;1593073;73;784;-68
2021/05/14 07:28:57;;;;;;;;;;;23.60;35.60;;;;;;1588454;73;1952;-67
2021/05/14 07:30:59;;;;;;;;;;;23.60;35.70;;;;;;1592159;73;790;-68
2021/05/14 07:33:01;;;;;;;;;;;23.60;35.60;;;;;;1593592;73;799;-68
2021/05/14 07:35:03;;;;;;;;;;;23.60;35.70;;;;;;1593728;73;834;-68
2021/05/14 07:37:05;;;;;;;;;;;23.70;35.80;;;;;;1590065;73;737;-68
2021/05/14 07:39:07;;;;;;;;;;;23.60;35.60;;;;;;1595584;73;1108;-66
2021/05/14 07:41:10;;;;;;;;;;;23.70;35.90;;;;;;1587700;73;895;-68
2021/05/14 07:43:12;;;;;;;;;;;23.80;35.90;;;;;;1592147;73;776;-66
2021/05/14 07:45:14;;;;;;;;;;;23.70;35.80;;;;;;1588891;73;748;-68
2021/05/14 07:47:16;;;;;;;;;;;23.80;35.90;;;;;;1593135;73;1125;-67
2021/05/14 07:49:18;;;;;;;;;;;23.80;35.80;;;;;;1589553;73;1962;-69
2021/05/14 07:51:20;;;;;;;;;;;23.90;35.90;;;;;;1583787;73;823;-68
2021/05/14 07:53:21;;;;;;;;;;;23.90;35.90;;;;;;1587814;73;771;-68
2021/05/14 07:55:23;;;;;;;;;;;23.80;35.80;;;;;;1591725;73;780;-68
2021/05/14 07:57:25;;;;;;;;;;;23.90;36.00;;;;;;1597121;73;1086;-68
2021/05/14 07:59:27;;;;;;;;;;;23.90;36.00;;;;;;1590097;73;792;-68
2021/05/14 08:01:29;;;;;;;;;;;23.90;36.00;;;;;;1588451;73;819;-68
2021/05/14 08:03:31;;;;;;;;;;;23.80;35.70;;;;;;1590627;73;902;-68
2021/05/14 08:05:33;;;;;;;;;;;23.80;35.90;;;;;;1582477;73;749;-69
2021/05/14 08:07:54;;;;;;;;;;;23.90;36.00;;;;;;1594850;73;1153;-66
2021/05/14 08:09:56;;;;;;;;;;;23.90;36.00;;;;;;1583877;73;1987;-68
2021/05/14 08:11:58;;;;;;;;;;;23.90;36.00;;;;;;1586923;73;792;-68
2021/05/14 08:13:59;;;;;;;;;;;23.90;35.90;;;;;;1590568;74;773;-67
2021/05/14 08:16:01;;;;;;;;;;;23.90;35.90;;;;;;1584447;73;688;-69
2021/05/14 08:18:03;;;;;;;;;;;23.90;35.90;;;;;;1584622;73;1206;-67
2021/05/14 08:20:07;;;;;;;;;;;23.90;36.50;;;;;;1578817;74;783;-67
2021/05/14 08:22:09;;;;;;;;;;;23.80;36.70;;;;;;1572227;74;694;-68
2021/05/14 08:24:11;;;;;;;;;;;23.80;36.30;;;;;;1585827;74;746;-67
2021/05/14 08:26:13;;;;;;;;;;;23.90;36.10;;;;;;1577575;74;719;-67
2021/05/14 08:28:15;;;;;;;;;;;24.00;35.90;;;;;;1582418;73;1943;-68
2021/05/14 08:30:17;;;;;;;;;;;24.00;35.90;;;;;;1566428;74;908;-63
2021/05/14 08:32:19;;;;;;;;;;;24.00;35.70;;;;;;1578220;74;817;-65
2021/05/14 08:34:21;;;;;;;;;;;23.90;35.70;;;;;;1575246;74;785;-65
2021/05/14 08:36:23;;;;;;;;;;;24.00;35.70;;;;;;1578306;74;775;-65
2021/05/14 08:38:27;;;;;;;;;;;24.00;35.70;;;;;;1580145;74;1110;-66
2021/05/14 08:40:28;;;;;;;;;;;24.00;35.60;;;;;;1577670;74;775;-65
2021/05/14 08:42:30;;;;;;;;;;;24.00;35.50;;;;;;1577752;74;711;-65
2021/05/14 08:44:32;;;;;;;;;;;23.90;35.50;;;;;;1580780;74;779;-64
2021/05/14 08:46:36;;;;;;;;;;;23.90;35.50;;;;;;1581623;74;721;-65
2021/05/14 08:48:38;;;;;;;;;;;23.80;35.20;;;;;;1580491;74;1925;-65
2021/05/14 08:50:41;;;;;;;;;;;23.70;35.70;;;;;;1574776;74;760;-65
2021/05/14 08:52:43;;;;;;;;;;;23.70;35.80;;;;;;1576763;74;786;-65
2021/05/14 08:54:46;;;;;;;;;;;23.60;35.70;;;;;;1569689;74;669;-64
2021/05/14 08:56:48;;;;;;;;;;;23.60;35.70;;;;;;1580290;74;780;-63
2021/05/14 08:58:50;;;;;;;;;;;23.50;35.70;;;;;;1579023;74;1114;-65
2021/05/14 09:00:52;;;;;;;;;;;23.50;35.80;;;;;;1577131;74;725;-66
2021/05/14 09:02:54;;;;;;;;;;;23.60;35.80;;;;;;1580361;74;796;-65
2021/05/14 09:04:56;;;;;;;;;;;23.60;35.70;;;;;;1578326;74;786;-65
2021/05/14 09:06:58;;;;;;;;;;;23.60;35.70;;;;;;1580953;74;802;-65
2021/05/14 09:09:01;;;;;;;;;;;23.50;35.70;;;;;;1576376;74;1938;-66
2021/05/14 09:11:02;;;;;;;;;;;23.50;35.70;;;;;;1577386;74;686;-67
2021/05/14 09:13:11;;;;;;;;;;;23.40;35.70;;;;;;1576635;74;914;-65
2021/05/14 09:15:27;;;;;;;;;;;23.50;35.90;;;;;;1578937;74;660;-67
2021/05/14 09:17:29;;;;;;;;;;;23.40;35.90;;;;;;1586312;74;823;-66
2021/05/14 09:19:31;;;;;;;;;;;23.40;36.00;;;;;;1581416;74;1125;-67
2021/05/14 09:21:33;;;;;;;;;;;23.40;36.00;;;;;;1575584;74;759;-65
2021/05/14 09:23:36;;;;;;;;;;;23.30;36.00;;;;;;1578151;74;736;-65
2021/05/14 09:25:38;;;;;;;;;;;23.40;36.00;;;;;;1574334;74;826;-66
2021/05/14 09:27:41;;;;;;;;;;;23.30;36.00;;;;;;1548281;75;1136;-64
2021/05/14 09:29:42;;;;;;;;;;;23.30;36.00;;;;;;1581250;74;1888;-65
2021/05/14 09:31:45;;;;;;;;;;;23.40;36.00;;;;;;1552980;75;740;-65
2021/05/14 09:33:47;;;;;;;;;;;23.30;36.00;;;;;;1582394;74;760;-65
2021/05/14 09:35:51;;;;;;;;;;;23.30;36.00;;;;;;1571925;74;825;-65
2021/05/14 09:37:53;;;;;;;;;;;23.30;36.00;;;;;;1578606;74;1191;-65
2021/05/14 09:40:13;;;;;;;;;;;23.30;36.00;;;;;;1576858;74;863;-67
2021/05/14 09:42:15;;;;;;;;;;;23.50;36.10;;;;;;1578930;74;810;-66
2021/05/14 09:44:21;;;;;;;;;;;23.30;36.00;;;;;;1544301;75;1220;-65
2021/05/14 09:46:26;;;;;;;;;;;23.50;36.00;;;;;;1581256;74;723;-67
2021/05/14 09:48:28;;;;;;;;;;;23.30;35.90;;;;;;1583922;74;1184;-65
2021/05/14 09:50:34;;;;;;;;;;;23.40;35.90;;;;;;1583041;74;1935;-65
2021/05/14 09:52:36;;;;;;;;;;;23.30;36.00;;;;;;1581661;74;705;-66
2021/05/14 09:54:40;;;;;;;;;;;23.20;36.00;;;;;;1579752;74;676;-65
2021/05/14 09:56:43;;;;;;;;;;;23.30;36.10;;;;;;1581464;74;1842;-65
2021/05/14 09:58:51;;;;;;;;;;;23.30;36.10;;;;;;1577519;74;1141;-65
2021/05/14 10:00:49;;;;;;;;;;;23.30;36.00;;;;;;1581607;74;1706;-65
2021/05/14 10:02:50;;;;;;;;;;;23.30;36.00;;;;;;1578770;73;863;-65
2021/05/14 10:04:52;;;;;;;;;;;23.40;36.00;;;;;;1579008;74;773;-65
2021/05/14 10:06:54;;;;;;;;;;;23.30;36.00;;;;;;1578674;74;732;-66
2021/05/14 10:09:05;;;;;;;;;;;23.30;36.00;;;;;;1580660;74;1953;-68
2021/05/14 10:11:00;;;;;;;;;;;23.30;36.00;;;;;;1580317;74;1627;-65
2021/05/14 10:13:03;;;;;;;;;;;23.30;36.10;;;;;;1589650;74;752;-65
2021/05/14 10:15:06;;;;;;;;;;;23.30;36.10;;;;;;1571252;74;763;-66
2021/05/14 10:17:08;;;;;;;;;;;23.30;36.20;;;;;;1582913;74;783;-65
2021/05/14 10:19:10;;;;;;;;;;;23.30;36.20;;;;;;1581383;74;1161;-65
2021/05/14 10:21:12;;;;;;;;;;;23.30;36.20;;;;;;1579489;74;941;-65
2021/05/14 10:23:15;;;;;;;;;;;23.30;36.10;;;;;;1584595;74;774;-65
2021/05/14 10:25:22;;;;;;;;;;;23.30;36.10;;;;;;1581029;74;805;-66
2021/05/14 10:27:24;;;;;;;;;;;23.30;36.10;;;;;;1542141;74;1447;-66
2021/05/14 10:29:26;;;;;;;;;;;23.30;36.10;;;;;;1598345;74;1945;-65
2021/05/14 10:31:28;;;;;;;;;;;23.30;36.10;;;;;;1569941;75;1154;-65
2021/05/14 10:33:48;;;;;;;;;;;23.30;36.00;;;;;;1604744;74;739;-65
2021/05/14 10:35:50;;;;;;;;;;;23.20;36.00;;;;;;1575946;74;822;-66
2021/05/14 10:37:52;;;;;;;;;;;23.20;36.00;;;;;;1581559;74;1142;-67
2021/05/14 10:39:54;;;;;;;;;;;23.20;36.00;;;;;;1574568;74;792;-66
2021/05/14 10:42:09;;;;;;;;;;;23.30;36.00;;;;;;1571326;74;794;-65
2021/05/14 10:44:11;;;;;;;;;;;23.20;35.70;;;;;;1588107;74;719;-65
2021/05/14 10:46:13;;;;;;;;;;;23.20;35.50;;;;;;1578488;74;733;-65
2021/05/14 10:48:24;;;;;;;;;;;23.20;35.50;;;;;;1539685;75;1402;-63
2021/05/14 10:50:33;;;;;;;;;;;23.10;35.30;;;;;;1578647;74;1927;-65
2021/05/14 10:52:35;;;;;;;;;;;23.10;35.10;;;;;;1581612;74;926;-67
2021/05/14 10:54:42;;;;;;;;;;;23.10;35.10;;;;;;1579378;74;820;-67
2021/05/14 10:56:50;;;;;;;;;;;23.10;34.90;;;;;;1581779;74;726;-66
2021/05/14 10:59:03;;;;;;;;;;;23.10;35.00;;;;;;1571243;74;1138;-67
2021/05/14 11:01:05;;;;;;;;;;;23.10;34.40;;;;;;1577399;74;816;-66
2021/05/14 11:03:19;;;;;;;;;;;23.10;34.20;;;;;;1582389;74;922;-65
2021/05/14 11:05:27;;;;;;;;;;;23.10;34.50;;;;;;1575541;74;773;-66
2021/05/14 11:07:35;;;;;;;;;;;23.10;34.60;;;;;;1582786;74;721;-65
2021/05/14 11:09:37;;;;;;;;;;;23.00;34.00;;;;;;1574492;74;1930;-65
2021/05/14 11:11:57;;;;;;;;;;;23.00;33.20;;;;;;1584906;74;694;-65
2021/05/14 11:14:04;;;;;;;;;;;23.00;33.40;;;;;;1577793;74;883;-66
2021/05/14 11:16:24;;;;;;;;;;;23.00;33.70;;;;;;1576954;74;1781;-65
2021/05/14 11:18:26;;;;;;;;;;;23.00;33.30;;;;;;1576010;74;1127;-66
2021/05/14 11:20:28;;;;;;;;;;;23.00;33.40;;;;;;1577557;74;732;-66
2021/05/14 11:22:37;;;;;;;;;;;23.00;33.50;;;;;;1581849;74;706;-64
2021/05/14 11:24:41;;;;;;;;;;;23.00;33.50;;;;;;1579500;74;729;-68
2021/05/14 11:26:49;;;;;;;;;;;23.00;33.50;;;;;;1579220;74;1111;-64
2021/05/14 11:28:51;;;;;;;;;;;23.00;33.40;;;;;;1581889;74;1672;-67
2021/05/14 11:30:55;;;;;;;;;;;23.00;33.40;;;;;;1577079;74;1918;-64
2021/05/14 11:32:57;;;;;;;;;;;23.00;33.60;;;;;;1579601;74;684;-65
2021/05/14 11:35:15;;;;;;;;;;;23.00;33.70;;;;;;1581900;74;765;-67
2021/05/14 11:37:23;;;;;;;;;;;23.00;33.60;;;;;;1580761;74;930;-65
2021/05/14 11:39:25;;;;;;;;;;;22.90;33.80;;;;;;1575439;74;1089;-66
2021/05/14 11:41:28;;;;;;;;;;;23.00;33.70;;;;;;1577456;74;722;-65
2021/05/14 11:43:30;;;;;;;;;;;22.90;33.70;;;;;;1582287;73;680;-65
2021/05/14 11:45:36;;;;;;;;;;;23.00;33.70;;;;;;1579227;74;734;-63
2021/05/14 11:47:37;;;;;;;;;;;23.00;33.60;;;;;;1580560;74;1149;-65
2021/05/14 11:49:39;;;;;;;;;;;23.00;33.80;;;;;;1587935;74;1934;-66
2021/05/14 11:51:40;;;;;;;;;;;23.00;33.90;;;;;;1580752;74;722;-66
2021/05/14 11:53:42;;;;;;;;;;;23.00;33.90;;;;;;1574164;74;714;-67
2021/05/14 11:55:45;;;;;;;;;;;23.00;34.00;;;;;;1579235;74;804;-67
2021/05/14 11:57:48;;;;;;;;;;;23.00;34.10;;;;;;1582494;74;1128;-66
2021/05/14 11:59:49;;;;;;;;;;;22.90;34.20;;;;;;1577662;74;866;-66
2021/05/14 12:01:51;;;;;;;;;;;22.90;34.40;;;;;;1577758;74;771;-65
2021/05/14 12:03:56;;;;;;;;;;;22.90;34.50;;;;;;1584519;74;703;-65
2021/05/14 12:06:02;;;;;;;;;;;22.90;34.50;;;;;;1579724;74;799;-66
2021/05/14 12:08:10;;;;;;;;;;;22.90;34.60;;;;;;1581069;74;1751;-65
2021/05/14 12:10:13;;;;;;;;;;;22.90;34.70;;;;;;1578031;73;1922;-65
2021/05/14 12:12:16;;;;;;;;;;;22.90;34.70;;;;;;1577653;74;702;-65
2021/05/14 12:14:21;;;;;;;;;;;22.90;34.70;;;;;;1576368;74;1963;-65
2021/05/14 12:16:23;;;;;;;;;;;22.90;34.70;;;;;;1585924;74;800;-66
2021/05/14 12:18:25;;;;;;;;;;;23.00;34.70;;;;;;1577625;74;1169;-66